LAP weather

Manuel Márquez de León International Airport
La Paz, Baja California Sur, Mexico

Public forecast

Using degrees Celsius for public forecast. Weather courtesy of forecast.io.

Current aviation weather report (METAR) for Manuel Márquez de León International Airport

Retrieved 2019/10/19 14:44 UTC (0 seconds ago):

MMLP 191444Z 20006KT 10SM FEW030 FEW080 20/15 A2989 RMK SLP120 52009 903 8/530 HZY

Aviation forecast (TAF) for Manuel Márquez de León International Airport

Forecast is more than 6 hours old.

Retrieved 2019/10/19 06:38 UTC (8 hours ago):

TAF MMLP 190531Z 1906/2006 16005KT P6SM SCT220 FM191800 28010KT P6SM SCT030 SCT230 BECMG 2003/2005 26004KT